createdAt,value
2023-03-30T00:03:51.443Z,53.08
2023-03-30T00:08:57.919Z,53.00
2023-03-30T00:14:00.315Z,53.17
2023-03-30T00:19:01.841Z,53.05
2023-03-30T00:24:03.534Z,53.43
2023-03-30T00:29:05.116Z,53.45
2023-03-30T00:34:06.815Z,53.73
2023-03-30T00:39:08.907Z,53.67
2023-03-30T00:44:48.376Z,53.49
2023-03-30T00:49:50.033Z,53.83
2023-03-30T00:54:54.116Z,53.70
2023-03-30T00:59:56.896Z,53.49
2023-03-30T01:04:58.579Z,53.31
2023-03-30T01:10:01.210Z,53.52
2023-03-30T01:15:03.064Z,53.66
2023-03-30T01:20:36.477Z,53.62
2023-03-30T01:26:08.426Z,53.44
2023-03-30T01:31:36.599Z,53.46
2023-03-30T01:37:27.298Z,53.43
2023-03-30T01:42:55.347Z,53.66
2023-03-30T01:48:21.165Z,53.36
2023-03-30T01:53:31.213Z,53.83
2023-03-30T01:58:39.213Z,53.73
2023-03-30T02:03:43.120Z,54.16
2023-03-30T02:08:49.633Z,54.01
2023-03-30T02:13:53.481Z,53.89
2023-03-30T02:18:55.487Z,54.29
2023-03-30T02:23:58.933Z,54.22
2023-03-30T02:29:00.436Z,54.08
2023-03-30T02:34:36.893Z,54.19
2023-03-30T02:39:58.954Z,54.67
2023-03-30T02:45:06.921Z,54.48
2023-03-30T02:50:21.497Z,54.80
2023-03-30T02:55:35.017Z,55.11
2023-03-30T03:00:50.659Z,54.88
2023-03-30T03:06:02.491Z,55.20
2023-03-30T03:11:07.975Z,55.06
2023-03-30T03:16:12.133Z,55.38
2023-03-30T03:21:18.435Z,55.24
2023-03-30T03:26:20.171Z,55.19
2023-03-30T03:31:22.119Z,55.74
2023-03-30T03:36:23.897Z,55.43
2023-03-30T03:41:27.994Z,55.62
2023-03-30T03:46:29.847Z,55.72
2023-03-30T03:51:32.922Z,55.42
2023-03-30T03:56:34.482Z,55.39
2023-03-30T04:01:36.184Z,54.98
2023-03-30T04:06:37.738Z,55.08
2023-03-30T04:11:39.286Z,55.16
2023-03-30T04:16:51.549Z,55.07
2023-03-30T04:22:19.772Z,55.67
2023-03-30T04:27:45.103Z,55.37
2023-03-30T04:33:09.751Z,55.17
2023-03-30T04:38:30.560Z,55.09
2023-03-30T04:44:06.326Z,55.75
2023-03-30T04:49:27.471Z,56.31
2023-03-30T04:54:49.232Z,56.21
2023-03-30T05:00:09.810Z,56.52
2023-03-30T05:05:36.619Z,56.85
2023-03-30T05:11:05.217Z,57.09
2023-03-30T05:16:29.463Z,57.16
2023-03-30T05:21:46.338Z,57.42
2023-03-30T05:27:08.498Z,57.60
2023-03-30T05:32:36.625Z,58.36
2023-03-30T05:37:44.366Z,58.17
2023-03-30T05:43:03.271Z,57.97
2023-03-30T05:48:23.626Z,58.90
2023-03-30T05:53:45.902Z,58.71
2023-03-30T05:59:10.677Z,58.42
2023-03-30T06:04:31.523Z,58.63
2023-03-30T06:09:34.685Z,58.78
2023-03-30T06:14:42.787Z,58.70
2023-03-30T06:20:12.672Z,58.54
2023-03-30T06:25:23.448Z,58.97
2023-03-30T06:30:25.669Z,58.76
2023-03-30T06:35:30.783Z,58.60
2023-03-30T06:40:33.196Z,58.20
2023-03-30T06:45:34.828Z,58.14
2023-03-30T06:50:36.759Z,58.05
2023-03-30T06:55:42.639Z,58.37
2023-03-30T07:00:48.450Z,58.47
2023-03-30T07:06:10.643Z,58.65
2023-03-30T07:11:13.794Z,58.63
2023-03-30T07:16:15.647Z,59.18
2023-03-30T07:21:18.190Z,59.20
2023-03-30T07:26:19.865Z,59.11
2023-03-30T07:31:28.141Z,59.11
2023-03-30T07:36:30.313Z,58.50
2023-03-30T07:41:31.946Z,58.51
2023-03-30T07:46:35.018Z,58.40
2023-03-30T07:51:36.977Z,58.50
2023-03-30T07:56:45.335Z,58.23
2023-03-30T08:01:50.176Z,58.29
2023-03-30T08:07:12.546Z,58.28
2023-03-30T08:12:14.343Z,58.15
2023-03-30T08:17:16.120Z,58.33
2023-03-30T08:22:17.884Z,58.24
2023-03-30T08:27:19.508Z,57.77
2023-03-30T08:32:21.073Z,58.05
2023-03-30T08:37:22.688Z,57.95
2023-03-30T08:42:42.895Z,57.97
2023-03-30T08:47:49.091Z,58.08
2023-03-30T08:52:52.546Z,58.07
2023-03-30T08:58:13.095Z,57.93
2023-03-30T09:03:18.117Z,58.47
2023-03-30T09:08:22.867Z,58.41
2023-03-30T09:13:28.251Z,58.74
2023-03-30T09:18:32.585Z,58.75
2023-03-30T09:23:35.919Z,58.58
2023-03-30T09:28:48.718Z,58.63
2023-03-30T09:34:06.241Z,58.50
2023-03-30T09:39:20.777Z,58.60
2023-03-30T09:44:45.408Z,58.65
2023-03-30T09:49:47.254Z,58.79
2023-03-30T09:54:48.901Z,58.79
2023-03-30T09:59:52.732Z,59.10
2023-03-30T10:04:54.648Z,59.38
2023-03-30T10:09:58.811Z,59.40
2023-03-30T10:15:04.282Z,59.54
2023-03-30T10:20:34.918Z,59.44
2023-03-30T10:25:38.448Z,59.66
2023-03-30T10:30:40.057Z,59.43
2023-03-30T10:35:41.700Z,59.53
2023-03-30T10:40:45.050Z,59.63
2023-03-30T10:45:59.825Z,59.68
2023-03-30T10:51:19.195Z,59.76
2023-03-30T10:56:47.097Z,59.88
2023-03-30T11:02:18.137Z,59.97
2023-03-30T11:07:33.956Z,59.89
2023-03-30T11:12:41.352Z,59.91
2023-03-30T11:17:57.385Z,59.92
2023-03-30T11:23:18.567Z,60.33
2023-03-30T11:28:32.466Z,60.25
2023-03-30T11:33:47.970Z,59.98
2023-03-30T11:38:58.771Z,59.99
2023-03-30T11:44:00.724Z,60.19
2023-03-30T11:49:14.364Z,59.83
2023-03-30T11:54:22.785Z,60.36
2023-03-30T11:59:24.256Z,60.59
2023-03-30T12:04:38.243Z,60.67
2023-03-30T12:09:54.819Z,61.03
2023-03-30T12:15:27.070Z,61.34
2023-03-30T12:20:37.624Z,61.70
2023-03-30T12:26:10.422Z,61.54
2023-03-30T12:31:12.705Z,61.78
2023-03-30T12:36:29.456Z,61.78
2023-03-30T12:41:42.042Z,61.66
2023-03-30T12:47:13.867Z,61.46
2023-03-30T12:52:53.867Z,61.41
2023-03-30T12:58:26.855Z,61.35
2023-03-30T13:03:52.928Z,61.43
2023-03-30T13:09:25.341Z,61.45
2023-03-30T13:14:29.911Z,61.35
2023-03-30T13:19:34.365Z,61.41
2023-03-30T13:24:41.738Z,61.28
2023-03-30T13:30:01.032Z,61.25
2023-03-30T13:35:15.771Z,61.25
2023-03-30T13:41:05.104Z,61.22
2023-03-30T13:46:19.395Z,60.65
2023-03-30T13:51:27.410Z,61.06
2023-03-30T13:56:35.681Z,60.90
2023-03-30T14:01:40.075Z,60.67
2023-03-30T14:06:45.887Z,60.43
2023-03-30T14:11:53.282Z,60.31
2023-03-30T14:16:56.318Z,59.92
2023-03-30T14:22:09.158Z,59.67
2023-03-30T14:27:15.800Z,59.66
2023-03-30T14:32:21.331Z,59.55
2023-03-30T14:37:26.095Z,59.42
2023-03-30T14:42:33.979Z,59.43
2023-03-30T14:47:37.551Z,59.27
2023-03-30T14:52:41.901Z,59.31
2023-03-30T14:57:44.022Z,59.00
2023-03-30T15:02:48.795Z,58.82
2023-03-30T15:07:52.114Z,58.82
2023-03-30T15:12:56.753Z,58.70
2023-03-30T15:17:59.783Z,58.74
2023-03-30T15:23:01.591Z,58.66
2023-03-30T15:28:09.707Z,58.70
2023-03-30T15:33:35.007Z,58.76
2023-03-30T15:38:56.058Z,58.98
2023-03-30T15:44:09.999Z,58.72
2023-03-30T15:49:20.360Z,58.50
2023-03-30T15:54:43.320Z,58.64
2023-03-30T15:59:49.874Z,58.27
2023-03-30T16:04:51.628Z,58.39
2023-03-30T16:09:53.271Z,58.84
2023-03-30T16:14:55.972Z,58.65
2023-03-30T16:19:57.488Z,58.75
2023-03-30T16:25:00.716Z,58.99
2023-03-30T16:30:13.469Z,58.38
2023-03-30T16:35:15.243Z,58.70
2023-03-30T16:40:40.229Z,58.77
2023-03-30T16:45:43.375Z,58.77
2023-03-30T16:50:46.912Z,58.67
2023-03-30T16:55:48.706Z,58.53
2023-03-30T17:00:52.963Z,58.13
2023-03-30T17:05:54.873Z,58.00
2023-03-30T17:11:00.901Z,56.99
2023-03-30T17:16:02.975Z,56.66
2023-03-30T17:21:05.169Z,56.21
2023-03-30T17:26:08.893Z,55.87
2023-03-30T17:31:21.761Z,55.92
2023-03-30T17:36:25.453Z,55.56
2023-03-30T17:41:27.062Z,55.33
2023-03-30T17:46:29.124Z,55.35
2023-03-30T17:51:30.912Z,55.19
2023-03-30T17:56:32.498Z,54.75
2023-03-30T18:01:36.093Z,54.55
2023-03-30T18:06:37.995Z,54.52
2023-03-30T18:11:39.742Z,54.33
2023-03-30T18:16:43.628Z,54.22
2023-03-30T18:21:45.559Z,54.27
2023-03-30T18:26:47.103Z,53.72
2023-03-30T18:31:49.470Z,53.97
2023-03-30T18:36:51.670Z,53.89
2023-03-30T18:41:53.386Z,53.63
2023-03-30T18:46:54.971Z,53.47
2023-03-30T18:51:56.513Z,53.77
2023-03-30T18:56:58.089Z,53.61
2023-03-30T19:01:59.700Z,53.52
2023-03-30T19:07:01.346Z,53.13
2023-03-30T19:12:03.258Z,53.11
2023-03-30T19:17:04.840Z,53.21
2023-03-30T19:22:06.449Z,52.90
2023-03-30T19:27:08.087Z,52.86
2023-03-30T19:32:11.695Z,52.99
2023-03-30T19:37:15.889Z,52.98
2023-03-30T19:42:17.653Z,52.88
2023-03-30T19:47:19.163Z,52.80
2023-03-30T19:52:20.999Z,52.64
2023-03-30T19:57:23.403Z,52.66
2023-03-30T20:02:25.394Z,52.65
2023-03-30T20:07:27.076Z,52.95
2023-03-30T20:12:29.550Z,52.87
2023-03-30T20:17:31.401Z,52.97
2023-03-30T20:22:37.634Z,53.05
2023-03-30T20:27:40.081Z,53.08
2023-03-30T20:32:41.757Z,53.08
2023-03-30T20:37:43.337Z,52.95
2023-03-30T20:42:48.062Z,53.22
2023-03-30T20:47:50.062Z,53.39
2023-03-30T20:52:53.740Z,53.55
2023-03-30T20:57:55.277Z,53.56
2023-03-30T21:02:56.891Z,53.40
2023-03-30T21:08:00.112Z,53.37
2023-03-30T21:13:01.909Z,53.30
2023-03-30T21:18:03.855Z,53.33
2023-03-30T21:23:05.404Z,53.55
2023-03-30T21:28:06.967Z,53.53
2023-03-30T21:33:08.616Z,53.34
2023-03-30T21:38:10.286Z,53.51
2023-03-30T21:43:11.984Z,52.95
2023-03-30T21:48:14.798Z,53.40
2023-03-30T21:53:17.302Z,53.09
2023-03-30T21:58:18.966Z,52.77
2023-03-30T22:03:21.170Z,52.80
2023-03-30T22:08:22.772Z,53.03
2023-03-30T22:13:24.423Z,52.97
2023-03-30T22:18:26.067Z,52.95
2023-03-30T22:23:27.767Z,52.65
2023-03-30T22:28:29.333Z,53.08
2023-03-30T22:33:31.083Z,53.17
2023-03-30T22:38:32.701Z,53.00
2023-03-30T22:43:35.747Z,52.91
2023-03-30T22:48:37.604Z,53.02
2023-03-30T22:53:39.124Z,53.10
2023-03-30T22:58:40.702Z,53.38
2023-03-30T23:03:42.413Z,53.19
2023-03-30T23:08:47.183Z,53.22
2023-03-30T23:13:49.457Z,53.14
2023-03-30T23:18:51.097Z,53.15
2023-03-30T23:23:52.648Z,53.29
2023-03-30T23:28:54.215Z,53.00
2023-03-30T23:33:56.848Z,53.31
2023-03-30T23:38:58.513Z,53.34
2023-03-30T23:44:00.598Z,53.23
2023-03-30T23:49:03.468Z,53.46
2023-03-30T23:54:08.371Z,53.23
2023-03-30T23:59:11.114Z,53.15
